Terminal Aerodrome Forecast
Issued by NWS Duluth, MN

Home | Current Version | Previous Version | Text Only | Print | Product List | Glossary On
Versions: 1 2 3 4 5 6 7 8 9 10 11 12 13 14 15 16 17 18 19 20
000
FTUS43 KDLH 181130
TAFINL
TAF
KINL 181130Z 1812/1912 25007KT P6SM FEW250
     FM190300 28004KT 6SM BR BKN070
     FM190400 29004KT 5SM BR BKN060
     FM191100 VRB03KT 2SM BR BKN030=

USA.gov is the U.S. government's official web portal to all federal, state and local government web resources and services.